Time;durP1;ratioP1;P1;durP2;ratioP2;P2;SDS_P1;SDS_P2;PMS_P1;PMS_P2;Temp;Humidity;BMP_temperature;BMP_pressure;BME280_temperature;BME280_humidity;BME280_pressure;Samples;Min_cycle;Max_cycle;Signal;HPM_P1;HPM_P2
2022/11/01 00:01:09;;;;;;;7.80;5.80;;;;;;;14.64;77.15;95645.53;5050883;28;20193;-81
2022/11/01 00:03:35;;;;;;;10.98;5.38;;;;;;;14.58;78.76;95668.88;5051341;28;20200;-80
2022/11/01 00:06:02;;;;;;;7.72;5.28;;;;;;;14.47;79.73;95652.13;5051132;28;20213;-80
2022/11/01 00:08:29;;;;;;;7.57;5.18;;;;;;;14.46;81.19;95660.88;5051352;28;20217;-80
2022/11/01 00:11:03;;;;;;;10.48;5.72;;;;;;;14.56;80.80;95676.03;5050760;28;20193;-80
2022/11/01 00:13:29;;;;;;;11.00;5.13;;;;;;;14.49;82.17;95660.50;5050640;28;20193;-79
2022/11/01 00:15:56;;;;;;;7.80;5.15;;;;;;;14.54;81.29;95673.66;5051584;28;20224;-82
2022/11/01 00:18:23;;;;;;;11.48;6.25;;;;;;;14.57;82.06;95672.47;5051225;28;20708;-79
2022/11/01 00:20:49;;;;;;;8.75;5.22;;;;;;;14.64;81.47;95674.03;5050468;28;20217;-80
2022/11/01 00:23:16;;;;;;;11.43;5.57;;;;;;;14.68;80.84;95667.47;5051977;28;20193;-81
2022/11/01 00:25:42;;;;;;;12.18;5.68;;;;;;;14.72;80.51;95671.25;5050914;28;20196;-80
2022/11/01 00:28:10;;;;;;;6.45;5.22;;;;;;;14.61;81.56;95664.09;5051427;28;20220;-80
2022/11/01 00:30:37;;;;;;;9.50;5.78;;;;;;;14.60;81.10;95666.88;5050830;28;20201;-80
2022/11/01 00:33:04;;;;;;;6.95;5.30;;;;;;;14.61;80.97;95663.31;5051682;28;20193;-82
2022/11/01 00:35:31;;;;;;;9.63;5.43;;;;;;;14.60;80.71;95661.72;5051528;28;20693;-80
2022/11/01 00:37:58;;;;;;;8.13;4.72;;;;;;;14.61;80.35;95658.91;5055796;28;20587;-80
2022/11/01 00:40:25;;;;;;;7.30;5.18;;;;;;;14.70;79.95;95654.31;5053930;28;20220;-80
2022/11/01 00:42:51;;;;;;;9.15;5.40;;;;;;;14.69;79.58;95657.91;5054733;28;20201;-81
2022/11/01 00:45:19;;;;;;;13.73;5.70;;;;;;;14.69;79.08;95653.50;5055238;28;20212;-81
2022/11/01 00:47:46;;;;;;;12.52;5.55;;;;;;;14.71;79.10;95655.91;5055550;28;20190;-81
2022/11/01 00:50:13;;;;;;;11.90;6.03;;;;;;;14.68;79.07;95648.53;5055901;28;20565;-80
2022/11/01 00:52:39;;;;;;;7.45;5.30;;;;;;;14.70;78.57;95651.72;5055214;28;20190;-81
2022/11/01 00:55:07;;;;;;;7.57;4.93;;;;;;;14.73;78.82;95646.16;5054992;28;20217;-80
2022/11/01 00:57:33;;;;;;;6.97;5.45;;;;;;;14.68;78.92;95649.31;5055607;28;20186;-80
2022/11/01 01:00:00;;;;;;;8.32;5.45;;;;;;;14.70;78.78;95641.34;5055091;28;20225;-80
2022/11/01 01:02:27;;;;;;;9.15;5.15;;;;;;;14.74;78.23;95637.38;5055544;28;20204;-80
2022/11/01 01:04:54;;;;;;;9.57;4.57;;;;;;;14.74;78.05;95637.38;5054876;28;20208;-80
2022/11/01 01:07:20;;;;;;;8.73;5.28;;;;;;;14.73;77.51;95644.34;5055895;28;20198;-81
2022/11/01 01:09:47;;;;;;;9.20;5.53;;;;;;;14.60;77.66;95648.75;5054889;28;20228;-80
2022/11/01 01:12:13;;;;;;;7.28;4.50;;;;;;;14.59;77.88;95649.75;5054733;28;20204;-80
2022/11/01 01:14:40;;;;;;;7.20;4.63;;;;;;;14.63;78.15;95648.31;5054582;28;20224;-81
2022/11/01 01:17:07;;;;;;;8.07;4.95;;;;;;;14.65;77.65;95651.50;5054771;28;20588;-80
2022/11/01 01:19:35;;;;;;;5.47;4.45;;;;;;;14.66;77.53;95642.75;5055039;28;20693;-81
2022/11/01 01:22:02;;;;;;;7.15;4.90;;;;;;;14.69;77.54;95645.75;5053066;28;20204;-81
2022/11/01 01:24:28;;;;;;;9.55;4.43;;;;;;;14.67;77.72;95647.72;5054487;28;20185;-80
2022/11/01 01:26:55;;;;;;;8.90;4.50;;;;;;;14.69;77.24;95637.16;5053171;28;20201;-80
2022/11/01 01:29:21;;;;;;;9.55;4.88;;;;;;;14.71;77.10;95637.75;5053649;28;20868;-80
2022/11/01 01:31:50;;;;;;;8.65;4.97;;;;;;;14.75;76.59;95636.38;5053944;28;20202;-80
2022/11/01 01:34:16;;;;;;;7.35;4.68;;;;;;;14.73;76.72;95630.59;5049030;28;20279;-82
2022/11/01 01:36:45;;;;;;;11.80;5.18;;;;;;;14.64;76.36;95629.97;5052917;28;20208;-81
2022/11/01 01:39:11;;;;;;;6.25;4.63;;;;;;;14.62;76.38;95626.03;5045790;28;20217;-80
2022/11/01 01:41:56;;;;;;;9.18;4.75;;;;;;;14.60;76.89;95626.22;5052494;28;20630;-80
2022/11/01 01:45:15;;;;;;;11.70;5.32;;;;;;;14.60;76.60;95621.03;5054611;28;20572;-81
2022/11/01 01:47:45;;;;;;;8.00;4.40;;;;;;;14.55;76.55;95623.44;5050524;28;20198;-80
2022/11/01 01:50:14;;;;;;;6.25;4.22;;;;;;;14.47;76.86;95619.22;5047177;28;20221;-80
2022/11/01 01:52:48;;;;;;;8.27;4.93;;;;;;;14.48;77.04;95620.03;5053484;28;20201;-82
2022/11/01 01:55:18;;;;;;;7.72;4.75;;;;;;;14.44;76.42;95616.25;5047020;28;20730;-79
2022/11/01 01:57:46;;;;;;;7.70;4.32;;;;;;;14.38;76.27;95623.00;5053317;28;20209;-80
2022/11/01 02:00:13;;;;;;;8.70;4.32;;;;;;;14.41;76.00;95629.63;5053405;28;20284;-81
2022/11/01 02:02:41;;;;;;;7.90;4.40;;;;;;;14.39;76.13;95621.22;5053479;28;20257;-81
2022/11/01 02:05:12;;;;;;;8.13;4.75;;;;;;;14.43;76.16;95623.22;5053926;28;20212;-81
2022/11/01 02:07:39;;;;;;;7.38;4.13;;;;;;;14.44;75.71;95616.25;5054229;28;20194;-80
2022/11/01 02:10:09;;;;;;;7.18;4.55;;;;;;;14.46;75.89;95614.25;5053708;28;20300;-79
2022/11/01 02:12:36;;;;;;;7.22;4.28;;;;;;;14.47;75.68;95627.00;5054491;28;20316;-80
2022/11/01 02:15:03;;;;;;;6.07;4.57;;;;;;;14.50;75.66;95620.63;5053561;28;20209;-81
2022/11/01 02:17:38;;;;;;;5.32;4.35;;;;;;;14.50;74.80;95625.81;5054166;28;20657;-81
2022/11/01 02:20:22;;;;;;;7.80;3.95;;;;;;;14.56;74.34;95619.03;5052461;28;20209;-81
2022/11/01 02:23:09;;;;;;;7.10;4.07;;;;;;;14.58;73.25;95625.63;5053136;28;20197;-80
2022/11/01 02:25:59;;;;;;;7.00;4.30;;;;;;;14.66;72.03;95638.38;5050291;28;20189;-80
2022/11/01 02:28:44;;;;;;;5.75;3.72;;;;;;;14.70;71.90;95628.41;5049466;28;20397;-82
2022/11/01 02:31:30;;;;;;;8.30;3.60;;;;;;;14.76;71.39;95631.00;5053888;28;20304;-81
2022/11/01 02:34:03;;;;;;;11.65;3.67;;;;;;;14.80;71.38;95629.59;5053430;28;20228;-81
2022/11/01 02:36:34;;;;;;;4.40;3.22;;;;;;;14.88;70.98;95625.97;5053338;28;20218;-80
2022/11/01 02:39:06;;;;;;;7.97;3.60;;;;;;;14.88;70.44;95628.56;5051412;28;20225;-81
2022/11/01 02:41:39;;;;;;;8.50;3.95;;;;;;;14.92;70.61;95621.19;5053370;28;20222;-81
2022/11/01 02:44:12;;;;;;;3.88;3.13;;;;;;;14.92;70.55;95628.97;5052282;28;20201;-80
2022/11/01 02:49:30;;;;;;;7.45;3.90;;;;;;;14.97;70.10;95626.56;5047360;28;20224;-80
2022/11/01 02:51:59;;;;;;;8.20;3.42;;;;;;;14.96;69.63;95627.56;5051930;28;20198;-80
2022/11/01 02:54:30;;;;;;;9.63;3.55;;;;;;;14.93;70.31;95627.97;5052865;28;20196;-80
2022/11/01 02:56:59;;;;;;;8.02;3.85;;;;;;;14.92;70.26;95623.78;5052311;28;20205;-82
2022/11/01 02:59:28;;;;;;;7.53;3.80;;;;;;;14.88;70.07;95627.78;5052220;28;20838;-80
2022/11/01 03:02:01;;;;;;;3.60;3.30;;;;;;;14.80;70.30;95628.81;5051975;28;20276;-81
2022/11/01 03:04:29;;;;;;;6.03;3.88;;;;;;;14.76;70.92;95630.19;5052772;28;20197;-80
2022/11/01 03:07:02;;;;;;;8.25;3.72;;;;;;;14.62;71.52;95631.22;5052047;28;20661;-80
2022/11/01 03:09:29;;;;;;;6.30;3.80;;;;;;;14.55;71.53;95638.19;5052807;28;20213;-80
2022/11/01 03:12:01;;;;;;;11.00;3.85;;;;;;;14.45;72.02;95641.94;5052517;28;20197;-80
2022/11/01 03:14:34;;;;;;;4.97;3.47;;;;;;;14.44;72.16;95653.31;5052497;28;20201;-80
2022/11/01 03:17:07;;;;;;;7.32;3.80;;;;;;;14.43;72.20;95654.28;5051810;28;20200;-80
2022/11/01 03:19:47;;;;;;;6.63;4.05;;;;;;;14.34;72.41;95660.66;5052682;28;20209;-81
2022/11/01 03:22:18;;;;;;;4.15;3.50;;;;;;;14.33;72.39;95658.25;5051356;28;20586;-80
2022/11/01 03:24:50;;;;;;;4.78;3.50;;;;;;;14.33;72.18;95655.66;5052394;28;20209;-81
2022/11/01 03:27:23;;;;;;;4.53;3.85;;;;;;;14.31;72.29;95649.88;5052378;28;20197;-80
2022/11/01 03:29:55;;;;;;;5.45;3.50;;;;;;;14.26;72.80;95650.47;5051321;28;20213;-79
2022/11/01 03:32:24;;;;;;;6.95;3.67;;;;;;;14.21;72.81;95649.47;5046522;28;20251;-80
2022/11/01 03:34:53;;;;;;;8.75;3.92;;;;;;;14.19;72.82;95654.84;5052779;28;20224;-80
2022/11/01 03:37:20;;;;;;;5.20;3.47;;;;;;;14.12;72.78;95659.22;5052476;28;20193;-80
2022/11/01 03:39:51;;;;;;;5.00;3.38;;;;;;;14.08;72.93;95661.41;5050295;28;20221;-80
2022/11/01 03:42:21;;;;;;;7.95;3.65;;;;;;;14.02;73.28;95662.19;5051777;28;20680;-80
2022/11/01 03:44:50;;;;;;;6.30;3.58;;;;;;;13.92;73.68;95669.53;5050468;28;20213;-80
2022/11/01 03:47:17;;;;;;;5.57;3.00;;;;;;;13.88;73.44;95668.31;5054228;28;20197;-80
2022/11/01 03:49:44;;;;;;;4.38;3.08;;;;;;;13.83;73.83;95676.69;5054178;28;20209;-80
2022/11/01 03:52:12;;;;;;;7.90;3.37;;;;;;;13.79;73.61;95672.06;5052875;28;20197;-79
2022/11/01 03:54:38;;;;;;;4.63;3.33;;;;;;;13.78;73.61;95678.25;5054625;28;20198;-80
2022/11/01 03:57:05;;;;;;;6.85;3.17;;;;;;;13.78;73.27;95671.28;5055040;28;20197;-81
2022/11/01 03:59:31;;;;;;;7.43;3.47;;;;;;;13.83;73.12;95673.28;5055102;28;20252;-80
2022/11/01 04:01:58;;;;;;;6.73;3.77;;;;;;;13.88;73.05;95670.91;5054057;28;20209;-81
2022/11/01 04:04:24;;;;;;;4.25;3.33;;;;;;;13.94;72.62;95677.91;5055426;28;20197;-80
2022/11/01 04:06:51;;;;;;;7.17;3.17;;;;;;;13.99;72.71;95679.91;5054144;28;20225;-80
2022/11/01 04:09:19;;;;;;;5.20;3.03;;;;;;;14.00;72.05;95684.09;5053984;28;20218;-80
2022/11/01 04:11:45;;;;;;;6.30;3.20;;;;;;;14.06;71.78;95691.06;5053638;28;20197;-80
2022/11/01 04:22:26;;;;;;;5.32;3.05;;;;;;;14.14;71.51;95688.31;5048667;28;20208;-80
2022/11/01 04:24:54;;;;;;;7.13;3.33;;;;;;;14.16;71.69;95692.28;5053715;28;20696;-79
2022/11/01 04:27:21;;;;;;;3.65;2.92;;;;;;;14.18;71.33;95694.69;5054121;28;20599;-80
2022/11/01 04:29:47;;;;;;;4.53;2.90;;;;;;;14.14;71.23;95691.69;5053317;28;20224;-81
2022/11/01 04:32:14;;;;;;;4.70;3.15;;;;;;;14.05;71.67;95697.22;5053018;28;20201;-80
2022/11/01 04:34:43;;;;;;;6.20;3.03;;;;;;;13.95;72.30;95702.00;5053596;28;20194;-83
2022/11/01 04:37:10;;;;;;;4.20;3.08;;;;;;;13.98;71.65;95710.16;5052163;28;20193;-80
2022/11/01 04:39:37;;;;;;;5.63;3.25;;;;;;;14.00;71.76;95715.97;5052060;28;20787;-80
2022/11/01 04:42:07;;;;;;;8.07;3.72;;;;;;;13.94;71.98;95713.34;5053056;28;20217;-80
2022/11/01 04:44:34;;;;;;;7.28;3.10;;;;;;;13.89;72.44;95719.09;5053558;28;20189;-81
2022/11/01 04:47:00;;;;;;;4.40;2.97;;;;;;;13.76;72.85;95722.44;5051939;28;20221;-80
2022/11/01 04:49:27;;;;;;;6.72;3.25;;;;;;;13.75;73.06;95722.63;5053080;28;20213;-80
2022/11/01 04:51:53;;;;;;;5.57;3.42;;;;;;;13.70;72.92;95728.38;5052796;28;20198;-80
2022/11/01 04:54:19;;;;;;;4.68;3.50;;;;;;;13.69;73.27;95733.72;5052710;28;20598;-80
2022/11/01 04:56:46;;;;;;;3.47;2.92;;;;;;;13.72;72.80;95743.69;5052459;28;20677;-80
2022/11/01 04:59:14;;;;;;;8.63;3.22;;;;;;;13.73;72.82;95737.53;5051503;28;20214;-80
2022/11/01 05:01:40;;;;;;;5.53;3.10;;;;;;;13.67;72.81;95738.28;5052090;28;20236;-81
2022/11/01 05:04:07;;;;;;;5.97;2.85;;;;;;;13.61;73.28;95739.88;5052829;28;20197;-80
2022/11/01 05:06:33;;;;;;;4.90;3.35;;;;;;;13.61;73.11;95741.66;5052354;28;20224;-80
2022/11/01 05:09:00;;;;;;;6.05;3.30;;;;;;;13.62;73.28;95741.47;5051437;28;20217;-80
2022/11/01 05:11:26;;;;;;;5.10;3.47;;;;;;;13.38;74.05;95737.56;5052509;28;20193;-80
2022/11/01 05:13:53;;;;;;;6.80;3.10;;;;;;;13.26;74.92;95735.69;5052023;28;20225;-81
2022/11/01 05:16:20;;;;;;;4.97;3.57;;;;;;;13.17;75.54;95739.41;5051329;28;20704;-80
2022/11/01 05:18:47;;;;;;;5.53;3.05;;;;;;;13.23;75.36;95746.41;5051901;28;20574;-81
2022/11/01 05:21:14;;;;;;;4.15;3.00;;;;;;;13.15;75.62;95739.59;5051041;28;20297;-79
2022/11/01 05:23:41;;;;;;;6.13;2.88;;;;;;;13.20;75.16;95754.53;5053981;28;20197;-80
2022/11/01 05:26:07;;;;;;;4.17;3.40;;;;;;;13.23;75.48;95756.75;5055748;28;20252;-79
2022/11/01 05:28:34;;;;;;;4.03;3.10;;;;;;;13.28;75.38;95756.97;5056919;28;20217;-80
2022/11/01 05:31:00;;;;;;;5.60;3.27;;;;;;;13.35;75.02;95761.22;5056224;28;20201;-80
2022/11/01 05:33:28;;;;;;;3.53;3.10;;;;;;;13.41;74.86;95770.81;5056402;28;20232;-80
2022/11/01 05:35:55;;;;;;;5.23;3.50;;;;;;;13.48;74.42;95766.44;5055759;28;20200;-83
2022/11/01 05:38:21;;;;;;;6.73;3.60;;;;;;;13.54;74.44;95770.06;5055564;28;20213;-79
2022/11/01 05:40:49;;;;;;;4.80;3.20;;;;;;;13.51;75.40;95770.44;5053960;28;20210;-80
2022/11/01 05:43:15;;;;;;;6.07;3.17;;;;;;;13.45;75.17;95774.63;5055043;28;20669;-80
2022/11/01 05:45:42;;;;;;;6.57;3.60;;;;;;;13.40;74.69;95766.63;5055557;28;20213;-80
2022/11/01 05:48:08;;;;;;;5.73;3.33;;;;;;;13.41;75.70;95775.19;5053989;28;20221;-80
2022/11/01 05:50:36;;;;;;;7.57;3.23;;;;;;;13.48;75.45;95781.16;5054988;28;20589;-80
2022/11/01 05:53:07;;;;;;;5.67;3.00;;;;;;;13.57;74.96;95779.25;5055748;28;20293;-80
2022/11/01 05:55:34;;;;;;;5.50;3.17;;;;;;;13.64;74.54;95786.06;5055126;28;20272;-80
2022/11/01 05:58:00;;;;;;;7.07;3.53;;;;;;;13.72;74.16;95782.50;5054414;28;20212;-79
2022/11/01 06:00:27;;;;;;;6.73;3.50;;;;;;;13.76;74.03;95794.88;5048885;28;20189;-80
2022/11/01 06:02:53;;;;;;;9.00;3.70;;;;;;;13.76;74.00;95801.84;5056952;28;20199;-80
2022/11/01 06:05:20;;;;;;;5.90;3.45;;;;;;;13.83;74.06;95802.69;5057766;28;20197;-80
2022/11/01 06:07:50;;;;;;;3.53;3.10;;;;;;;13.87;73.94;95796.13;5054950;28;20200;-81
2022/11/01 06:10:17;;;;;;;7.37;3.43;;;;;;;13.85;73.68;95797.34;5054093;28;20200;-81
2022/11/01 06:12:43;;;;;;;3.80;3.33;;;;;;;13.88;72.94;95800.31;5054754;28;20200;-81
2022/11/01 06:15:11;;;;;;;7.32;3.03;;;;;;;13.94;72.68;95809.91;5053779;28;20207;-80
2022/11/01 06:17:37;;;;;;;5.27;3.17;;;;;;;13.98;72.27;95811.13;5052419;28;20213;-80
2022/11/01 06:20:05;;;;;;;6.75;2.85;;;;;;;14.05;71.43;95808.56;5052280;28;20267;-79
2022/11/01 06:22:34;;;;;;;4.45;2.90;;;;;;;14.08;70.31;95821.94;5054956;28;20197;-80
2022/11/01 06:25:02;;;;;;;3.92;2.58;;;;;;;14.08;70.71;95827.09;5053687;28;20197;-80
2022/11/01 06:27:29;;;;;;;6.85;2.85;;;;;;;14.13;70.46;95837.69;5053967;28;20673;-79
2022/11/01 06:29:55;;;;;;;4.90;2.90;;;;;;;14.17;70.37;95843.28;5053786;28;20225;-80
2022/11/01 06:32:25;;;;;;;7.82;3.20;;;;;;;14.18;70.73;95850.06;5054505;28;20197;-80
2022/11/01 06:34:51;;;;;;;3.75;2.60;;;;;;;14.16;70.84;95865.00;5053183;28;20202;-82
2022/11/01 06:37:17;;;;;;;5.40;2.85;;;;;;;14.13;71.52;95878.31;5053494;28;20201;-80
2022/11/01 06:39:44;;;;;;;3.53;2.72;;;;;;;14.05;72.03;95879.25;5049935;28;20225;-80
2022/11/01 06:42:12;;;;;;;6.07;2.88;;;;;;;14.00;72.48;95878.25;5052086;28;20197;-81
2022/11/01 06:44:38;;;;;;;6.22;3.28;;;;;;;13.97;72.97;95884.63;5049717;28;20220;-79
2022/11/01 06:47:04;;;;;;;4.28;2.63;;;;;;;14.01;73.06;95888.44;5053080;28;20217;-81
2022/11/01 06:49:31;;;;;;;6.00;2.97;;;;;;;14.09;72.67;95887.47;5048523;28;20221;-79
2022/11/01 06:51:58;;;;;;;6.85;2.92;;;;;;;14.21;72.71;95898.91;5046899;28;20289;-82
2022/11/01 06:54:24;;;;;;;3.97;2.50;;;;;;;14.29;72.54;95903.91;5049919;28;20201;-81
2022/11/01 06:56:51;;;;;;;3.10;2.45;;;;;;;14.33;72.24;95905.13;5055956;28;20193;-81
2022/11/01 06:59:19;;;;;;;5.53;2.90;;;;;;;14.37;71.95;95908.94;5053636;28;20224;-81
2022/11/01 07:01:45;;;;;;;4.68;2.90;;;;;;;14.38;72.13;95907.94;5055877;28;20198;-82
2022/11/01 07:04:12;;;;;;;5.28;2.92;;;;;;;14.44;72.00;95914.16;5052079;28;20242;-79
2022/11/01 07:06:39;;;;;;;4.38;2.63;;;;;;;14.47;71.66;95917.19;5054274;28;20336;-80
2022/11/01 07:09:09;;;;;;;5.03;2.97;;;;;;;14.56;71.81;95924.81;5053606;28;20228;-81
2022/11/01 07:11:36;;;;;;;4.18;2.85;;;;;;;14.63;71.73;95925.59;5047636;28;20569;-81
2022/11/01 07:14:04;;;;;;;5.90;2.55;;;;;;;14.68;71.20;95928.44;5054218;28;20228;-81
2022/11/01 07:16:34;;;;;;;5.00;3.63;;;;;;;14.74;70.94;95944.03;5049548;28;20681;-81
2022/11/01 07:19:01;;;;;;;4.55;2.88;;;;;;;14.81;70.56;95944.06;5052329;28;20221;-81
2022/11/01 07:21:27;;;;;;;4.65;2.90;;;;;;;14.88;70.26;95950.06;5052225;28;20193;-81
2022/11/01 07:23:54;;;;;;;6.90;2.97;;;;;;;15.00;69.85;95948.50;5050129;28;20232;-81
2022/11/01 07:26:20;;;;;;;7.32;2.58;;;;;;;15.06;68.83;95946.91;5052583;28;20588;-81
2022/11/01 07:28:47;;;;;;;6.55;2.70;;;;;;;15.05;68.05;95947.91;5053826;28;20222;-80
2022/11/01 07:31:14;;;;;;;7.38;2.83;;;;;;;15.06;67.44;95959.88;5053636;28;20202;-81
2022/11/01 07:33:42;;;;;;;6.68;3.05;;;;;;;15.10;67.77;95964.50;5054341;28;20208;-80
2022/11/01 07:36:09;;;;;;;5.07;3.08;;;;;;;15.15;67.79;95975.09;5053115;28;20193;-81
2022/11/01 07:38:36;;;;;;;5.93;2.72;;;;;;;15.19;67.80;95972.91;5050619;28;20239;-80
2022/11/01 07:41:03;;;;;;;6.65;3.00;;;;;;;15.27;67.30;95972.72;5051893;28;20197;-80
2022/11/01 07:43:29;;;;;;;6.85;2.90;;;;;;;15.41;67.52;95987.31;5052532;28;20197;-81
2022/11/01 07:45:59;;;;;;;5.43;3.00;;;;;;;15.57;66.86;95990.59;5051292;28;20210;-81
2022/11/01 07:48:26;;;;;;;5.18;2.90;;;;;;;15.81;66.25;95990.00;5053968;28;20217;-80
2022/11/01 07:50:55;;;;;;;7.60;2.90;;;;;;;16.19;65.30;95978.00;5053034;28;20710;-80
2022/11/01 07:53:22;;;;;;;3.88;2.70;;;;;;;16.78;63.44;95982.31;5049056;28;20202;-80
2022/11/01 07:55:48;;;;;;;4.43;2.55;;;;;;;17.20;61.73;95986.16;5048432;28;20209;-80
2022/11/01 07:58:16;;;;;;;5.20;2.90;;;;;;;17.57;58.96;95994.94;5050133;28;20700;-81
2022/11/01 08:00:43;;;;;;;8.07;3.40;;;;;;;17.94;58.44;95975.09;5049940;28;20200;-80
2022/11/01 08:03:12;;;;;;;7.20;3.08;;;;;;;18.26;57.91;95982.84;5051204;28;20942;-80
2022/11/01 08:05:39;;;;;;;4.70;2.90;;;;;;;18.29;56.28;95970.16;5050824;28;20201;-80
2022/11/01 08:08:08;;;;;;;6.75;3.20;;;;;;;18.33;56.61;95975.75;5051700;28;20566;-81
2022/11/01 08:10:35;;;;;;;6.20;2.95;;;;;;;18.20;57.59;95975.88;5050616;28;20217;-82
2022/11/01 08:13:03;;;;;;;4.53;3.05;;;;;;;17.92;58.08;95971.91;5043372;28;20201;-80
2022/11/01 08:15:30;;;;;;;4.55;2.95;;;;;;;17.67;58.71;95978.91;5057755;28;20217;-80
2022/11/01 08:17:57;;;;;;;5.00;3.08;;;;;;;17.50;59.69;95980.41;5056757;28;20209;-83
2022/11/01 08:20:24;;;;;;;6.30;3.42;;;;;;;17.40;60.24;95972.22;5056718;28;20895;-82
2022/11/01 08:22:52;;;;;;;6.18;3.33;;;;;;;17.35;60.89;95978.06;5057011;28;20193;-81
2022/11/01 08:25:20;;;;;;;7.43;3.53;;;;;;;17.42;61.29;95975.44;5056906;28;20205;-81
2022/11/01 08:27:47;;;;;;;7.63;3.55;;;;;;;17.46;61.40;95974.81;5053319;28;20225;-80
2022/11/01 08:30:14;;;;;;;10.00;3.47;;;;;;;17.64;61.46;95981.09;5054573;28;20221;-81
2022/11/01 08:32:40;;;;;;;4.88;3.45;;;;;;;17.83;60.80;95977.59;5048104;28;20194;-83
2022/11/01 08:35:07;;;;;;;4.55;3.58;;;;;;;18.00;61.00;95975.25;5035237;28;20206;-81
2022/11/01 08:37:34;;;;;;;7.78;3.88;;;;;;;18.12;60.28;95984.75;5034476;28;20198;-81
2022/11/01 08:40:00;;;;;;;6.70;3.92;;;;;;;18.24;59.86;95982.28;5033746;28;20237;-81
2022/11/01 08:42:31;;;;;;;7.95;3.97;;;;;;;18.21;59.89;95986.09;5035141;28;20252;-80
2022/11/01 08:44:57;;;;;;;6.57;4.15;;;;;;;18.11;60.01;95980.56;5035015;28;20213;-81
2022/11/01 08:47:24;;;;;;;9.88;3.85;;;;;;;17.96;60.45;95990.50;5044541;28;20228;-81
2022/11/01 08:49:50;;;;;;;7.10;3.90;;;;;;;17.86;60.48;95993.59;5055264;28;20226;-83
2022/11/01 08:52:17;;;;;;;7.97;3.88;;;;;;;17.84;61.15;95995.63;5054643;28;20212;-80
2022/11/01 08:54:43;;;;;;;9.40;3.70;;;;;;;17.86;61.10;95990.19;5054139;28;20202;-80
2022/11/01 08:57:09;;;;;;;5.85;3.47;;;;;;;17.83;61.24;95996.63;5055237;28;20870;-81
2022/11/01 08:59:37;;;;;;;7.50;3.72;;;;;;;17.83;61.36;95993.22;5057203;28;20573;-81
2022/11/01 09:02:04;;;;;;;6.72;3.67;;;;;;;17.82;61.58;95996.84;5057721;28;20205;-80
2022/11/01 09:04:30;;;;;;;8.23;4.05;;;;;;;17.72;61.52;95997.28;5058156;28;20651;-82
2022/11/01 09:06:57;;;;;;;7.50;3.40;;;;;;;17.66;61.95;96002.56;5054617;28;20593;-80
2022/11/01 09:09:23;;;;;;;7.18;3.30;;;;;;;17.60;62.07;95998.94;5051590;28;20344;-81
2022/11/01 09:11:50;;;;;;;9.05;3.88;;;;;;;17.54;62.47;95995.38;5055987;28;20202;-81
2022/11/01 09:14:16;;;;;;;7.57;4.10;;;;;;;17.49;62.72;95999.63;5055602;28;20198;-82
2022/11/01 09:16:44;;;;;;;6.50;3.38;;;;;;;17.43;63.10;95984.84;5054941;28;20205;-81
2022/11/01 09:19:11;;;;;;;7.30;3.97;;;;;;;17.45;63.17;95985.44;5054824;28;20225;-81
2022/11/01 09:21:37;;;;;;;5.35;3.97;;;;;;;17.38;63.41;95982.84;5054378;28;20208;-80
2022/11/01 09:24:04;;;;;;;5.82;3.50;;;;;;;17.38;63.39;95974.25;5054878;28;20216;-81
2022/11/01 09:26:30;;;;;;;5.38;3.40;;;;;;;17.33;63.82;95980.06;5057749;28;20906;-80
2022/11/01 09:28:58;;;;;;;6.50;3.17;;;;;;;17.43;63.79;95974.41;5058559;28;20731;-80
2022/11/01 09:31:25;;;;;;;7.15;3.70;;;;;;;17.51;63.88;95979.38;5058586;28;20209;-81
2022/11/01 09:33:55;;;;;;;5.18;3.45;;;;;;;17.52;64.05;95978.34;5057494;28;20204;-80
2022/11/01 09:36:25;;;;;;;6.45;3.70;;;;;;;17.52;63.83;95970.53;5056656;28;20202;-81
2022/11/01 09:38:51;;;;;;;6.82;3.35;;;;;;;17.55;63.72;95960.50;5058245;28;20233;-80
2022/11/01 09:41:27;;;;;;;6.35;3.33;;;;;;;17.57;63.37;95963.72;5058583;28;20572;-80
2022/11/01 09:43:56;;;;;;;7.18;3.58;;;;;;;17.60;63.45;95952.88;5057996;28;20220;-81
2022/11/01 09:46:26;;;;;;;4.95;3.45;;;;;;;17.67;63.94;95952.06;5057567;28;20576;-80
2022/11/01 09:48:55;;;;;;;7.00;3.53;;;;;;;17.68;63.46;95953.66;5056294;28;20217;-83
2022/11/01 09:51:24;;;;;;;4.57;3.20;;;;;;;17.68;63.23;95961.47;5056771;28;20631;-80
2022/11/01 09:53:56;;;;;;;6.40;3.33;;;;;;;17.66;63.64;95960.88;5057431;28;20212;-81
2022/11/01 09:56:28;;;;;;;6.00;3.80;;;;;;;17.69;63.66;95965.69;5058049;28;20205;-81
2022/11/01 09:59:04;;;;;;;5.22;3.20;;;;;;;17.64;63.48;95973.28;5056561;28;20225;-80
2022/11/01 10:01:44;;;;;;;7.22;3.30;;;;;;;17.66;63.42;95985.13;5056239;28;20205;-81
2022/11/01 10:04:35;;;;;;;6.05;3.05;;;;;;;17.69;63.52;95994.31;5056971;28;20628;-81
2022/11/01 10:07:08;;;;;;;5.03;3.13;;;;;;;17.61;63.86;95990.94;5055984;28;20616;-80
2022/11/01 10:09:45;;;;;;;6.43;3.00;;;;;;;17.69;64.00;95997.72;5055768;28;20257;-81
2022/11/01 10:12:23;;;;;;;4.60;3.00;;;;;;;17.59;64.30;95998.16;5056331;28;20204;-81
2022/11/01 10:15:07;;;;;;;5.45;2.88;;;;;;;17.63;64.47;95998.53;5056919;28;20213;-81
2022/11/01 10:17:49;;;;;;;6.85;3.05;;;;;;;17.66;64.36;95997.34;5061141;28;20204;-81
2022/11/01 10:20:20;;;;;;;5.97;2.95;;;;;;;17.72;65.03;95991.28;5060675;28;20271;-81
2022/11/01 10:22:49;;;;;;;7.00;3.42;;;;;;;17.80;64.52;95991.84;5059557;28;20206;-80
2022/11/01 10:25:20;;;;;;;6.32;3.05;;;;;;;17.86;63.93;95988.41;5061145;28;20201;-81
2022/11/01 10:27:53;;;;;;;6.20;2.92;;;;;;;17.97;63.88;95988.69;5059821;28;20232;-80
2022/11/01 10:30:20;;;;;;;6.65;3.17;;;;;;;18.07;63.59;95989.84;5060881;28;20208;-81
2022/11/01 10:32:51;;;;;;;6.95;3.00;;;;;;;18.07;63.67;95999.47;5061095;28;20725;-80
2022/11/01 10:35:25;;;;;;;4.28;2.83;;;;;;;18.10;63.49;95994.59;5060750;28;20212;-82
2022/11/01 10:37:57;;;;;;;4.97;2.72;;;;;;;18.14;63.85;95987.97;5058209;28;20247;-82
2022/11/01 10:40:28;;;;;;;8.57;2.85;;;;;;;18.24;66.10;95997.91;5045297;28;20339;-82
2022/11/01 10:42:55;;;;;;;10.98;3.15;;;;;;;18.44;65.66;95993.31;5057460;28;20304;-82
2022/11/01 10:45:22;;;;;;;3.92;2.80;;;;;;;18.43;63.21;95981.28;5058269;28;20194;-81
2022/11/01 10:47:53;;;;;;;8.63;3.10;;;;;;;18.44;62.37;95985.50;5059052;28;20213;-82
2022/11/01 10:50:23;;;;;;;4.15;2.50;;;;;;;18.30;62.73;95974.38;5058760;28;20263;-81
2022/11/01 10:52:54;;;;;;;4.30;2.40;;;;;;;18.33;62.78;95972.34;5059856;28;20201;-82
2022/11/01 10:55:26;;;;;;;5.90;2.60;;;;;;;18.52;62.62;95969.53;5052469;28;20281;-83
2022/11/01 10:57:57;;;;;;;3.67;2.45;;;;;;;18.75;62.65;95968.13;5058209;28;20209;-81
2022/11/01 11:00:24;;;;;;;3.03;2.15;;;;;;;18.85;61.21;95974.47;5057810;28;20280;-81
2022/11/01 11:02:55;;;;;;;6.35;2.50;;;;;;;18.92;60.25;95976.97;5058505;28;20194;-82
2022/11/01 11:05:26;;;;;;;3.35;2.30;;;;;;;18.88;59.82;95967.97;5056826;28;20225;-81
2022/11/01 11:07:52;;;;;;;5.88;2.42;;;;;;;18.97;59.77;95979.72;5057071;28;20244;-82
2022/11/01 11:10:23;;;;;;;4.05;2.42;;;;;;;18.99;58.86;95982.91;5057018;28;20728;-81
2022/11/01 11:12:53;;;;;;;5.85;2.40;;;;;;;19.05;58.91;95978.66;5058367;28;20574;-82
2022/11/01 11:15:25;;;;;;;3.80;2.40;;;;;;;19.09;59.21;95985.00;5058109;28;20205;-82
2022/11/01 11:17:56;;;;;;;2.15;1.85;;;;;;;19.06;58.17;95982.81;5057031;28;20186;-82
2022/11/01 11:20:29;;;;;;;5.55;1.98;;;;;;;19.06;58.35;95980.22;5056700;28;20193;-80
2022/11/01 11:22:56;;;;;;;4.97;2.20;;;;;;;18.98;58.11;95983.94;5057514;28;20725;-81
2022/11/01 11:25:32;;;;;;;3.92;2.17;;;;;;;19.01;58.13;95982.72;5058140;28;20193;-81
2022/11/01 11:27:59;;;;;;;5.65;2.45;;;;;;;19.05;58.75;95981.25;5058268;28;20225;-81
2022/11/01 11:30:28;;;;;;;4.13;2.25;;;;;;;19.14;58.47;95983.34;5059596;28;20739;-81
2022/11/01 11:32:57;;;;;;;7.15;2.22;;;;;;;19.18;57.77;95984.50;5061155;28;20204;-81
2022/11/01 11:35:27;;;;;;;3.95;2.00;;;;;;;19.21;57.78;95975.44;5060728;28;20253;-81
2022/11/01 11:37:56;;;;;;;4.32;1.65;;;;;;;19.30;57.06;95976.69;5058069;28;20186;-81
2022/11/01 11:40:24;;;;;;;2.75;1.70;;;;;;;19.33;57.01;95973.66;5055892;28;20290;-81
2022/11/01 11:42:53;;;;;;;3.55;1.73;;;;;;;19.40;57.00;95970.97;5057240;28;20264;-81
2022/11/01 11:45:23;;;;;;;3.80;1.90;;;;;;;19.57;56.75;95970.13;5057508;28;20209;-81
2022/11/01 11:47:50;;;;;;;2.75;1.60;;;;;;;19.62;56.57;95972.88;5057275;28;20228;-80
2022/11/01 11:50:27;;;;;;;2.60;1.90;;;;;;;19.96;58.41;95975.78;5058389;28;20217;-81
2022/11/01 11:52:59;;;;;;;3.17;1.95;;;;;;;20.08;56.29;95973.97;5060175;28;20192;-80